Time;durP1;ratioP1;P1;durP2;ratioP2;P2;SDS_P1;SDS_P2;PMS_P1;PMS_P2;Temp;Humidity;BMP_temperature;BMP_pressure;BME280_temperature;BME280_humidity;BME280_pressure;Samples;Min_cycle;Max_cycle;Signal;HPM_P1;HPM_P2
2021/01/15 06:53:27;;;;;;;210.87;19.83;;;-4.20;95.80;;;;;;5035989;28;20218;-87
2021/01/15 06:55:55;;;;;;;113.60;16.87;;;-4.20;95.80;;;;;;5035958;28;20301;-88
2021/01/15 06:58:24;;;;;;;132.20;18.07;;;-4.10;96.30;;;;;;5034694;28;20236;-87
2021/01/15 07:01:19;;;;;;;228.37;21.27;;;-4.00;96.70;;;;;;5037775;28;20238;-87
2021/01/15 07:04:24;;;;;;;75.87;16.37;;;-3.90;96.60;;;;;;5034529;28;20697;-87
2021/01/15 07:07:13;;;;;;;38.67;14.97;;;-3.80;96.60;;;;;;5040884;28;20206;-87
2021/01/15 07:09:43;;;;;;;30.37;16.10;;;-3.70;96.20;;;;;;5031976;28;20223;-85
2021/01/15 07:12:11;;;;;;;37.97;15.73;;;-3.70;96.20;;;;;;5035903;28;20455;-88
2021/01/15 07:14:47;;;;;;;30.23;16.87;;;-3.60;95.90;;;;;;5040866;28;20313;-83
2021/01/15 07:17:16;;;;;;;25.77;15.10;;;-3.40;95.90;;;;;;5042392;28;20598;-89
2021/01/15 07:19:44;;;;;;;26.97;15.33;;;-3.30;95.10;;;;;;5042357;28;20236;-90
2021/01/15 07:22:12;;;;;;;27.57;15.53;;;-3.30;94.80;;;;;;5040274;28;20814;-85
2021/01/15 07:24:41;;;;;;;30.00;16.27;;;-3.40;94.50;;;;;;5046106;28;20234;-85
2021/01/15 07:27:09;;;;;;;27.60;15.73;;;-3.40;94.70;;;;;;5044732;28;20405;-89
2021/01/15 07:29:40;;;;;;;27.73;16.03;;;-3.30;94.60;;;;;;5041394;28;21082;-86
2021/01/15 07:32:15;;;;;;;25.20;15.13;;;-3.30;94.40;;;;;;5036673;28;20215;-84
2021/01/15 07:34:46;;;;;;;25.80;15.77;;;-3.20;94.40;;;;;;5042863;28;20220;-88
2021/01/15 07:37:20;;;;;;;24.50;14.03;;;-3.30;93.70;;;;;;5016257;28;20557;-85
2021/01/15 07:40:06;;;;;;;24.70;14.87;;;-3.10;93.90;;;;;;5041948;28;20248;-85
2021/01/15 07:42:49;;;;;;;23.83;15.13;;;-2.90;93.40;;;;;;5040687;28;20615;-86
2021/01/15 07:45:42;;;;;;;26.83;15.63;;;-2.90;93.00;;;;;;5047255;28;20222;-87
2021/01/15 07:48:16;;;;;;;26.17;15.03;;;-2.80;93.10;;;;;;5051907;28;20218;-83
2021/01/15 07:50:46;;;;;;;25.20;14.63;;;-2.80;92.90;;;;;;5059693;28;20211;-87
2021/01/15 07:53:21;;;;;;;24.20;14.47;;;-2.70;92.60;;;;;;5057331;28;20810;-89
2021/01/15 07:55:50;;;;;;;22.20;14.20;;;-2.70;92.70;;;;;;5054297;28;20299;-83
2021/01/15 07:58:18;;;;;;;25.13;14.83;;;-2.70;93.20;;;;;;5047437;28;20234;-83
2021/01/15 08:00:45;;;;;;;25.27;14.53;;;-2.50;93.00;;;;;;5044595;28;20246;-88
2021/01/15 08:03:12;;;;;;;27.83;15.40;;;-2.50;92.70;;;;;;5041585;28;20233;-82
2021/01/15 08:05:44;;;;;;;23.30;12.93;;;-2.40;92.60;;;;;;5055033;28;20194;-80
2021/01/15 08:08:12;;;;;;;24.47;13.97;;;-2.30;92.20;;;;;;5048881;28;20241;-82
2021/01/15 08:10:46;;;;;;;20.27;13.27;;;-2.20;91.90;;;;;;5047476;28;20289;-89
2021/01/15 08:13:54;;;;;;;24.23;13.67;;;-2.10;91.80;;;;;;5053076;28;20308;-82
2021/01/15 08:16:25;;;;;;;27.37;15.50;;;-2.10;91.70;;;;;;5050669;28;20232;-80
2021/01/15 08:18:53;;;;;;;27.33;14.93;;;-2.20;91.90;;;;;;5045767;28;20851;-81
2021/01/15 08:21:21;;;;;;;22.57;14.27;;;-2.00;91.80;;;;;;5048600;28;20584;-83
2021/01/15 08:23:47;;;;;;;24.73;13.93;;;-1.90;91.70;;;;;;5042517;28;20243;-80
2021/01/15 08:26:31;;;;;;;24.13;14.30;;;-1.90;91.70;;;;;;5041456;28;20230;-88
2021/01/15 08:28:58;;;;;;;24.47;14.67;;;-1.80;91.10;;;;;;5038636;28;20353;-79
2021/01/15 08:31:26;;;;;;;22.67;13.77;;;-1.90;90.90;;;;;;5041662;28;20289;-83
2021/01/15 08:34:11;;;;;;;21.57;14.23;;;-1.90;91.60;;;;;;5040368;28;20808;-83
2021/01/15 08:36:41;;;;;;;22.10;13.47;;;-2.00;91.50;;;;;;5037879;28;20801;-86
2021/01/15 08:39:08;;;;;;;22.20;14.13;;;-1.80;91.30;;;;;;5040686;28;20315;-80
2021/01/15 08:41:35;;;;;;;24.30;14.20;;;-1.70;91.00;;;;;;5039426;28;20279;-79
2021/01/15 08:44:01;;;;;;;22.20;14.53;;;-1.50;90.60;;;;;;5037319;28;21222;-79
2021/01/15 08:46:31;;;;;;;20.97;12.93;;;-1.60;90.70;;;;;;5036547;28;20206;-79
2021/01/15 08:48:57;;;;;;;22.70;13.60;;;-1.50;90.40;;;;;;5043798;28;20230;-80
2021/01/15 08:51:25;;;;;;;21.23;14.23;;;-1.40;90.40;;;;;;5045652;28;20209;-89
2021/01/15 08:54:05;;;;;;;20.87;13.17;;;-1.20;89.20;;;;;;5030790;28;20256;-81
2021/01/15 08:56:37;;;;;;;22.37;14.30;;;-1.10;88.40;;;;;;5031811;28;20952;-86
2021/01/15 08:59:04;;;;;;;21.87;14.37;;;-1.00;87.70;;;;;;5037750;28;22472;-84
2021/01/15 09:01:36;;;;;;;21.47;14.40;;;-0.90;87.90;;;;;;5031274;28;20760;-82
2021/01/15 09:04:04;;;;;;;21.03;14.20;;;-0.80;87.80;;;;;;5032939;28;20267;-83
2021/01/15 09:06:31;;;;;;;19.50;13.23;;;-0.80;87.90;;;;;;5035934;28;20202;-82
2021/01/15 09:09:03;;;;;;;19.80;13.00;;;-0.90;88.30;;;;;;5036330;28;20222;-85
2021/01/15 09:11:32;;;;;;;19.40;12.30;;;-0.80;86.60;;;;;;5042714;28;20238;-83
2021/01/15 09:13:58;;;;;;;17.13;12.33;;;-0.60;87.50;;;;;;5033944;28;20330;-84
2021/01/15 09:16:27;;;;;;;16.87;12.37;;;-0.40;85.50;;;;;;5040073;28;20272;-79
2021/01/15 09:18:56;;;;;;;17.77;12.17;;;-0.20;85.70;;;;;;5041828;28;20241;-86
2021/01/15 09:21:23;;;;;;;15.97;12.10;;;0.40;84.50;;;;;;5044453;28;20257;-86
2021/01/15 09:23:50;;;;;;;18.53;13.23;;;1.20;79.40;;;;;;5037848;28;20256;-81
2021/01/15 09:26:19;;;;;;;19.93;14.30;;;1.00;78.20;;;;;;5041826;28;20198;-90
2021/01/15 09:28:46;;;;;;;17.13;12.57;;;1.20;79.80;;;;;;5045733;28;20221;-86
2021/01/15 09:31:12;;;;;;;16.87;12.90;;;1.90;77.80;;;;;;5039865;28;20212;-89
2021/01/15 09:33:47;;;;;;;15.77;12.10;;;2.70;71.00;;;;;;5048101;28;20217;-85
2021/01/15 09:36:20;;;;;;;18.57;13.67;;;2.70;67.40;;;;;;5042662;28;20336;-88
2021/01/15 09:38:47;;;;;;;15.80;12.03;;;2.20;69.00;;;;;;5041770;28;20274;-86
2021/01/15 09:41:13;;;;;;;18.60;12.20;;;2.00;71.50;;;;;;5041793;28;20230;-87
2021/01/15 09:43:41;;;;;;;15.87;12.10;;;2.00;71.20;;;;;;5034762;28;20694;-84
2021/01/15 09:46:08;;;;;;;17.47;12.60;;;1.80;72.10;;;;;;5041545;28;20208;-84
2021/01/15 09:48:34;;;;;;;16.33;12.73;;;1.70;73.60;;;;;;5045730;28;20228;-83
2021/01/15 09:51:01;;;;;;;15.77;12.30;;;1.40;74.80;;;;;;5040525;28;20241;-86
2021/01/15 09:53:28;;;;;;;17.30;12.93;;;1.20;75.00;;;;;;5034532;28;20228;-86
2021/01/15 09:55:55;;;;;;;18.53;12.50;;;1.10;76.20;;;;;;5040629;28;20198;-81
2021/01/15 09:58:21;;;;;;;17.23;12.17;;;1.50;75.10;;;;;;5042767;28;20450;-80
2021/01/15 10:00:48;;;;;;;19.33;12.87;;;1.90;73.20;;;;;;5040174;28;20252;-85
2021/01/15 10:03:15;;;;;;;16.03;12.20;;;2.70;72.70;;;;;;5042448;28;20234;-86
2021/01/15 10:05:41;;;;;;;15.13;11.43;;;4.40;61.00;;;;;;5042845;28;20317;-85
2021/01/15 10:08:08;;;;;;;15.00;11.93;;;5.30;54.10;;;;;;5043376;28;20233;-89
2021/01/15 10:10:35;;;;;;;15.82;13.40;;;6.30;50.90;;;;;;5045468;28;20230;-84
2021/01/15 10:13:03;;;;;;;15.68;13.18;;;6.60;47.30;;;;;;5048362;28;20226;-85
2021/01/15 10:15:31;;;;;;;15.85;12.50;;;5.70;48.30;;;;;;5051754;28;20210;-84
2021/01/15 10:17:58;;;;;;;17.92;14.00;;;5.20;53.80;;;;;;5050972;28;20289;-84
2021/01/15 10:20:25;;;;;;;16.02;13.07;;;4.80;53.10;;;;;;5047107;28;20328;-85
2021/01/15 10:22:52;;;;;;;19.52;13.48;;;4.90;54.30;;;;;;5054459;28;20232;-85
2021/01/15 10:25:19;;;;;;;16.75;13.38;;;5.10;51.80;;;;;;5057882;28;20201;-85
2021/01/15 10:27:46;;;;;;;17.58;14.50;;;5.00;53.50;;;;;;5054689;28;20203;-86
2021/01/15 10:30:14;;;;;;;16.27;13.52;;;5.30;52.80;;;;;;5052118;28;20198;-88
2021/01/15 10:32:46;;;;;;;17.10;13.27;;;5.80;52.00;;;;;;5051327;28;20293;-85
2021/01/15 10:35:14;;;;;;;15.27;13.30;;;6.40;49.20;;;;;;5049347;28;20255;-89
2021/01/15 10:37:42;;;;;;;19.02;14.55;;;6.40;49.30;;;;;;5044551;28;20210;-85
2021/01/15 10:40:09;;;;;;;17.20;13.93;;;6.40;46.60;;;;;;5044928;28;20186;-87
2021/01/15 10:42:39;;;;;;;16.10;13.48;;;6.00;46.70;;;;;;5042544;28;20224;-92
2021/01/15 10:45:07;;;;;;;18.42;14.32;;;4.60;51.50;;;;;;5045297;28;20217;-88
2021/01/15 10:47:34;;;;;;;19.17;13.63;;;4.00;54.90;;;;;;5045752;28;20614;-87
2021/01/15 10:50:00;;;;;;;19.20;13.40;;;3.30;58.80;;;;;;5045423;28;20309;-85
2021/01/15 10:52:26;;;;;;;17.95;14.23;;;3.10;62.00;;;;;;5045964;28;20214;-86
2021/01/15 10:54:52;;;;;;;19.63;14.93;;;3.00;60.60;;;;;;5045269;28;20359;-88
2021/01/15 10:57:19;;;;;;;18.27;15.07;;;2.50;64.20;;;;;;5046855;28;20742;-90
2021/01/15 10:59:45;;;;;;;19.20;14.90;;;2.40;67.00;;;;;;5043211;28;20320;-86
2021/01/15 11:02:12;;;;;;;17.73;13.93;;;2.30;66.90;;;;;;5042673;28;20234;-87
2021/01/15 11:04:39;;;;;;;16.33;13.37;;;2.20;66.80;;;;;;5046569;28;20231;-87
2021/01/15 11:07:05;;;;;;;18.20;14.07;;;2.20;66.80;;;;;;5046491;28;20675;-90
2021/01/15 11:09:32;;;;;;;17.40;13.60;;;2.20;66.80;;;;;;5045823;28;20709;-84
2021/01/15 11:11:59;;;;;;;18.87;15.07;;;2.30;66.90;;;;;;5047637;28;20751;-84
2021/01/15 11:14:26;;;;;;;17.80;13.60;;;2.50;67.00;;;;;;5049629;28;20235;-85
2021/01/15 11:16:53;;;;;;;16.53;13.00;;;2.90;64.00;;;;;;5045264;28;20900;-85
2021/01/15 11:19:21;;;;;;;18.97;13.60;;;3.10;63.30;;;;;;5045316;28;20570;-88
2021/01/15 11:21:50;;;;;;;17.27;13.33;;;3.20;62.20;;;;;;5040790;28;20528;-91
2021/01/15 11:24:16;;;;;;;16.87;13.77;;;3.40;61.60;;;;;;5044123;28;20316;-86
2021/01/15 11:26:43;;;;;;;18.37;14.17;;;3.10;63.60;;;;;;5041832;28;20209;-87
2021/01/15 11:29:12;;;;;;;16.63;12.53;;;2.50;64.40;;;;;;5037091;28;20628;-84
2021/01/15 11:31:40;;;;;;;18.47;13.93;;;2.20;66.70;;;;;;5045054;28;20210;-85
2021/01/15 11:34:36;;;;;;;18.93;12.93;;;1.60;69.00;;;;;;5059464;28;20237;-82
2021/01/15 11:37:36;;;;;;;20.30;14.23;;;1.40;71.60;;;;;;5053053;28;20202;-83
2021/01/15 11:40:07;;;;;;;20.40;13.40;;;1.00;75.00;;;;;;5050973;28;20619;-89
2021/01/15 11:42:34;;;;;;;21.43;14.63;;;0.90;77.00;;;;;;5054513;28;20697;-92
2021/01/15 11:45:23;;;;;;;19.30;12.90;;;1.20;76.60;;;;;;5056822;28;20321;-86
2021/01/15 11:47:53;;;;;;;20.13;14.23;;;1.60;75.40;;;;;;5050481;28;20286;-84
2021/01/15 11:51:14;;;;;;;17.97;11.67;;;1.40;74.20;;;;;;5059578;28;20285;-84
2021/01/15 11:54:02;;;;;;;16.87;11.90;;;1.10;75.80;;;;;;5063220;28;20612;-84
2021/01/15 11:56:28;;;;;;;18.43;12.43;;;1.00;76.90;;;;;;5061181;28;20200;-85
2021/01/15 11:58:55;;;;;;;17.87;11.47;;;0.90;77.40;;;;;;5060670;28;20251;-91
2021/01/15 12:01:21;;;;;;;17.50;12.03;;;1.00;77.40;;;;;;5063826;28;20263;-85
2021/01/15 12:03:56;;;;;;;16.80;11.73;;;1.20;77.70;;;;;;5064001;28;20284;-84
2021/01/15 12:06:22;;;;;;;18.13;12.10;;;0.90;76.80;;;;;;5064145;28;20204;-86
2021/01/15 12:08:48;;;;;;;17.83;11.80;;;0.80;77.20;;;;;;5056059;28;20259;-88
2021/01/15 12:11:43;;;;;;;18.20;11.53;;;0.80;77.10;;;;;;5060903;28;20208;-82
2021/01/15 12:14:23;;;;;;;17.13;11.07;;;0.70;77.80;;;;;;5061220;28;20755;-84
2021/01/15 12:16:50;;;;;;;16.83;11.47;;;0.80;78.10;;;;;;5061422;28;20232;-82
2021/01/15 12:19:16;;;;;;;16.80;11.53;;;1.10;77.50;;;;;;5066603;28;20198;-81
2021/01/15 12:25:26;;;;;;;16.47;11.07;;;0.90;76.60;;;;;;5060952;28;20200;-81
2021/01/15 12:27:54;;;;;;;16.03;11.00;;;0.90;77.00;;;;;;5049171;28;20279;-81
2021/01/15 12:30:22;;;;;;;16.13;11.57;;;0.80;77.30;;;;;;5063987;28;20212;-80
2021/01/15 12:33:11;;;;;;;18.30;11.93;;;0.80;77.30;;;;;;5070249;28;20253;-81
2021/01/15 12:39:00;;;;;;;20.40;12.67;;;0.90;77.20;;;;;;5060168;28;20413;-88
2021/01/15 12:41:26;;;;;;;19.53;10.93;;;0.80;77.80;;;;;;5054221;28;20712;-86
2021/01/15 12:43:54;;;;;;;18.97;11.50;;;0.90;77.60;;;;;;5050658;28;20212;-84
2021/01/15 12:46:21;;;;;;;18.80;11.20;;;0.90;77.20;;;;;;5047655;28;20205;-84
2021/01/15 12:48:48;;;;;;;14.40;10.63;;;0.80;77.80;;;;;;5047480;28;20283;-85
2021/01/15 12:51:14;;;;;;;15.93;11.07;;;1.00;76.80;;;;;;5056745;28;20296;-86
2021/01/15 12:53:40;;;;;;;17.63;11.30;;;1.10;76.50;;;;;;5047377;28;20231;-82
2021/01/15 12:56:07;;;;;;;16.73;11.60;;;1.20;77.10;;;;;;5051971;28;20851;-87
2021/01/15 12:58:34;;;;;;;15.97;10.70;;;1.30;77.50;;;;;;5052711;28;20253;-84
2021/01/15 13:01:16;;;;;;;14.23;10.67;;;1.30;76.20;;;;;;5058519;28;20251;-82
2021/01/15 13:04:05;;;;;;;17.17;11.17;;;1.00;75.90;;;;;;5056959;28;20300;-83
2021/01/15 13:06:36;;;;;;;14.97;10.30;;;0.90;76.70;;;;;;5052144;28;20312;-82
2021/01/15 13:09:03;;;;;;;17.37;11.83;;;0.80;76.30;;;;;;5060168;28;20240;-81
2021/01/15 13:11:45;;;;;;;14.33;9.37;;;0.80;77.10;;;;;;5048510;28;20311;-87
2021/01/15 13:14:11;;;;;;;13.37;9.37;;;0.80;77.00;;;;;;5056924;28;20855;-83
2021/01/15 13:16:40;;;;;;;15.33;9.60;;;0.90;75.80;;;;;;5059544;28;20219;-85
2021/01/15 13:19:07;;;;;;;12.00;8.90;;;1.00;75.20;;;;;;5059507;28;20228;-84
2021/01/15 13:21:33;;;;;;;11.80;8.37;;;1.00;75.00;;;;;;5054225;28;20321;-85
2021/01/15 13:24:00;;;;;;;11.57;8.33;;;1.10;73.90;;;;;;5051257;28;20323;-84
2021/01/15 13:26:26;;;;;;;11.30;7.50;;;1.10;74.00;;;;;;5058412;28;20668;-84
2021/01/15 13:28:56;;;;;;;9.93;6.90;;;1.10;72.20;;;;;;5055516;28;21323;-84
2021/01/15 13:31:45;;;;;;;11.60;7.80;;;1.10;71.50;;;;;;5061549;28;20235;-83
2021/01/15 13:37:42;;;;;;;12.27;7.97;;;0.80;73.20;;;;;;5051649;28;20185;-83
2021/01/15 13:40:35;;;;;;;10.33;7.07;;;0.80;75.10;;;;;;5057675;28;20240;-83
2021/01/15 13:43:18;;;;;;;11.37;7.67;;;0.90;73.20;;;;;;5081449;28;20275;-83
2021/01/15 13:45:58;;;;;;;10.23;8.07;;;0.90;73.70;;;;;;5071574;28;20478;-84
2021/01/15 13:48:27;;;;;;;13.70;9.10;;;1.00;74.50;;;;;;5062690;28;20244;-83
2021/01/15 13:54:59;;;;;;;12.87;9.23;;;1.00;76.10;;;;;;5059238;28;20275;-84
2021/01/15 13:57:55;;;;;;;12.10;9.37;;;1.00;77.00;;;;;;5064041;28;20211;-83
2021/01/15 14:28:49;;;;;;;14.23;9.87;;;0.30;84.10;;;;;;5049483;28;21060;-84
2021/01/15 14:31:17;;;;;;;14.83;10.07;;;0.20;82.90;;;;;;5056833;28;20297;-86
2021/01/15 14:33:45;;;;;;;15.00;10.23;;;0.10;82.50;;;;;;5049639;28;20223;-85
2021/01/15 14:36:11;;;;;;;15.87;10.63;;;0.10;82.60;;;;;;5051868;28;20207;-84
2021/01/15 14:38:37;;;;;;;14.50;11.17;;;0.00;83.20;;;;;;5044861;28;20233;-83
2021/01/15 14:41:04;;;;;;;17.57;11.13;;;0.00;84.20;;;;;;5041723;28;20199;-83
2021/01/15 14:43:30;;;;;;;17.53;11.07;;;-0.10;85.10;;;;;;5045340;28;20231;-82
2021/01/15 14:45:58;;;;;;;18.73;10.67;;;-0.10;85.60;;;;;;5040029;28;20211;-82
2021/01/15 14:48:24;;;;;;;15.80;10.37;;;-0.20;85.70;;;;;;5044821;28;20288;-82
2021/01/15 14:50:51;;;;;;;14.40;10.17;;;-0.20;85.30;;;;;;5044162;28;20206;-91
2021/01/15 14:53:19;;;;;;;16.87;10.83;;;-0.20;84.70;;;;;;5042396;28;21130;-85
2021/01/15 14:55:45;;;;;;;15.10;10.97;;;-0.20;84.50;;;;;;5040973;28;20204;-83
2021/01/15 14:58:12;;;;;;;18.20;12.00;;;-0.30;84.90;;;;;;5036347;28;20698;-89
2021/01/15 15:00:38;;;;;;;13.10;9.60;;;-0.30;85.60;;;;;;5026270;28;20230;-84
2021/01/15 15:03:05;;;;;;;15.37;10.50;;;-0.20;84.80;;;;;;5046901;28;20252;-86
2021/01/15 15:05:32;;;;;;;17.27;10.43;;;-0.20;84.40;;;;;;5053638;28;20288;-83
2021/01/15 15:07:58;;;;;;;16.87;10.50;;;-0.30;84.70;;;;;;5054126;28;20206;-84
2021/01/15 15:10:24;;;;;;;21.23;13.10;;;-0.40;85.50;;;;;;5060493;28;20218;-83
2021/01/15 15:12:52;;;;;;;12.83;9.33;;;-0.40;88.10;;;;;;5061183;28;20288;-82
2021/01/15 15:15:22;;;;;;;14.20;10.10;;;-0.40;85.50;;;;;;5061455;28;20198;-83
2021/01/15 15:17:49;;;;;;;14.87;10.30;;;-0.40;85.60;;;;;;5048097;28;21470;-86
2021/01/15 15:20:22;;;;;;;28.87;15.53;;;-0.50;85.50;;;;;;5053628;28;20274;-85
2021/01/15 15:22:49;;;;;;;44.97;26.40;;;0.10;90.70;;;;;;5055335;28;20287;-83
2021/01/15 15:25:16;;;;;;;18.07;11.43;;;0.60;86.30;;;;;;5058265;28;20202;-84
2021/01/15 15:27:42;;;;;;;12.77;9.37;;;0.70;81.60;;;;;;5060572;28;20281;-82
2021/01/15 15:30:13;;;;;;;14.23;9.23;;;0.50;80.60;;;;;;5037249;28;20247;-86
2021/01/15 15:32:42;;;;;;;12.57;8.93;;;0.30;80.80;;;;;;5062108;28;20648;-85
2021/01/15 15:35:43;;;;;;;18.27;13.00;;;0.30;82.50;;;;;;5062207;28;20302;-82
2021/01/15 15:38:11;;;;;;;16.40;9.23;;;0.50;85.50;;;;;;5056006;28;20705;-83
2021/01/15 15:40:37;;;;;;;14.13;10.13;;;0.50;81.70;;;;;;5055010;28;20563;-85
2021/01/15 15:43:04;;;;;;;16.03;10.50;;;0.50;80.50;;;;;;5054049;28;20341;-83
2021/01/15 15:45:46;;;;;;;17.27;9.90;;;0.70;84.10;;;;;;5055304;28;20207;-83
2021/01/15 15:48:13;;;;;;;14.93;10.03;;;0.80;79.50;;;;;;5046437;28;20231;-83
2021/01/15 15:50:41;;;;;;;14.93;10.30;;;0.70;81.90;;;;;;5042651;28;20231;-85
2021/01/15 15:53:08;;;;;;;12.60;9.17;;;0.70;83.10;;;;;;5025020;28;20275;-80
2021/01/15 15:55:35;;;;;;;14.07;10.10;;;0.90;82.50;;;;;;5050414;28;20196;-84
2021/01/15 15:58:03;;;;;;;13.83;9.13;;;0.70;79.50;;;;;;5051272;28;20203;-83
2021/01/15 16:00:29;;;;;;;13.87;10.00;;;0.50;81.00;;;;;;5048645;28;20248;-86
2021/01/15 16:02:57;;;;;;;14.37;10.10;;;0.60;81.00;;;;;;5057940;28;20313;-84
2021/01/15 16:12:44;;;;;;;13.23;10.03;;;0.80;83.90;;;;;;5061153;28;20195;-81
2021/01/15 16:15:11;;;;;;;14.47;9.97;;;0.80;81.80;;;;;;5056907;28;20239;-81
2021/01/15 16:18:06;;;;;;;16.93;10.60;;;0.50;81.70;;;;;;5061876;28;20643;-81
2021/01/15 16:20:33;;;;;;;16.00;10.70;;;0.50;82.60;;;;;;5059353;28;20613;-83
2021/01/15 16:23:00;;;;;;;14.40;11.03;;;0.40;82.50;;;;;;5059597;28;20290;-84
2021/01/15 16:25:27;;;;;;;15.77;11.47;;;0.30;83.20;;;;;;5065254;28;20705;-90
2021/01/15 16:27:55;;;;;;;16.73;10.57;;;0.20;83.20;;;;;;5061314;28;20211;-81
2021/01/15 16:30:22;;;;;;;16.07;10.67;;;0.20;83.70;;;;;;5060582;28;20205;-85
2021/01/15 16:32:49;;;;;;;16.17;11.80;;;0.10;83.70;;;;;;5054153;28;20291;-88
2021/01/15 16:35:17;;;;;;;15.50;11.10;;;0.20;84.10;;;;;;5049791;28;20199;-86
2021/01/15 16:37:43;;;;;;;16.33;11.27;;;0.30;84.10;;;;;;5044442;28;20196;-80
2021/01/15 16:40:11;;;;;;;16.83;11.13;;;0.30;84.90;;;;;;5044842;28;20728;-83
2021/01/15 16:42:40;;;;;;;17.07;11.43;;;0.30;85.70;;;;;;5044365;28;20231;-79
2021/01/15 16:45:12;;;;;;;16.90;11.97;;;0.20;85.40;;;;;;5044680;28;20280;-86
2021/01/15 16:47:38;;;;;;;16.90;12.00;;;0.10;85.90;;;;;;5045271;28;20285;-80
2021/01/15 16:50:08;;;;;;;16.43;11.67;;;0.10;85.90;;;;;;5051926;28;20228;-83
2021/01/15 16:52:52;;;;;;;19.20;12.17;;;0.10;85.90;;;;;;5048944;28;20696;-79
2021/01/15 16:55:19;;;;;;;17.10;11.80;;;0.10;85.90;;;;;;5044275;28;20235;-78
2021/01/15 16:57:45;;;;;;;18.97;12.80;;;0.00;85.80;;;;;;5055680;28;20235;-80
2021/01/15 17:00:14;;;;;;;19.77;12.90;;;0.10;85.90;;;;;;5093902;23;20295;-79
2021/01/15 17:02:41;;;;;;;17.70;12.13;;;0.20;85.90;;;;;;5048255;28;20220;-81
2021/01/15 17:05:08;;;;;;;20.73;13.40;;;0.30;86.00;;;;;;5047682;28;20254;-84
2021/01/15 17:07:47;;;;;;;19.97;13.23;;;0.20;85.90;;;;;;5058870;28;20270;-84
2021/01/15 17:10:13;;;;;;;20.60;13.93;;;0.10;85.90;;;;;;5061792;28;20321;-81
2021/01/15 17:12:40;;;;;;;20.47;13.87;;;0.00;86.40;;;;;;5046165;28;20624;-87
2021/01/15 17:15:08;;;;;;;19.30;13.53;;;-0.10;87.70;;;;;;5056559;28;20223;-83
2021/01/15 17:17:40;;;;;;;19.40;13.20;;;0.00;88.10;;;;;;5052131;28;20208;-83
2021/01/15 17:20:08;;;;;;;20.03;14.07;;;-0.10;87.60;;;;;;5054180;28;20226;-84
2021/01/15 17:22:37;;;;;;;22.23;14.90;;;-0.10;88.30;;;;;;5056288;28;20223;-82
2021/01/15 17:25:16;;;;;;;22.20;13.50;;;-0.20;89.40;;;;;;5050333;28;20227;-80
2021/01/15 17:27:46;;;;;;;22.37;13.97;;;-0.10;89.60;;;;;;5045414;28;20222;-82
2021/01/15 17:30:13;;;;;;;21.17;14.63;;;-0.20;89.50;;;;;;5049210;28;20224;-87
2021/01/15 17:32:46;;;;;;;21.93;14.47;;;-0.20;90.00;;;;;;5053382;28;20543;-84
2021/01/15 17:35:12;;;;;;;20.97;13.80;;;-0.10;89.60;;;;;;5047715;28;20260;-83
2021/01/15 17:37:40;;;;;;;22.70;14.10;;;0.00;88.90;;;;;;5047357;28;20286;-86
2021/01/15 17:40:08;;;;;;;20.17;14.17;;;0.00;88.30;;;;;;5048363;28;20279;-89
2021/01/15 17:42:38;;;;;;;22.03;14.03;;;0.00;88.60;;;;;;5056452;28;20215;-86
2021/01/15 17:45:08;;;;;;;22.57;14.13;;;0.00;88.70;;;;;;5063059;28;20359;-85
2021/01/15 17:47:52;;;;;;;22.23;13.77;;;0.00;87.70;;;;;;5053643;28;20258;-87
2021/01/15 17:53:40;;;;;;;23.20;14.67;;;0.00;87.60;;;;;;5046548;28;20870;-88
2021/01/15 17:56:07;;;;;;;21.47;14.30;;;-0.20;89.10;;;;;;5059477;28;20207;-83
2021/01/15 17:58:35;;;;;;;21.33;14.43;;;-0.20;90.00;;;;;;5056075;28;20252;-85
2021/01/15 18:01:01;;;;;;;21.47;14.40;;;-0.10;89.80;;;;;;5048117;28;20222;-85
2021/01/15 18:03:36;;;;;;;20.67;14.17;;;-0.10;88.90;;;;;;5047065;28;20308;-83
2021/01/15 18:06:02;;;;;;;20.17;13.97;;;-0.20;89.90;;;;;;5055452;28;20584;-84
2021/01/15 18:08:58;;;;;;;20.97;14.03;;;-0.20;90.10;;;;;;5065467;28;20310;-83
2021/01/15 18:11:25;;;;;;;20.80;14.33;;;-0.20;90.00;;;;;;5058302;28;20202;-82
2021/01/15 18:13:52;;;;;;;22.53;14.37;;;-0.20;90.30;;;;;;5059278;28;20251;-82
2021/01/15 18:19:47;;;;;;;21.30;13.80;;;0.20;87.80;;;;;;5079679;28;20195;-80
2021/01/15 18:22:14;;;;;;;20.77;14.07;;;0.20;87.10;;;;;;5062111;28;20564;-83
2021/01/15 18:24:41;;;;;;;23.70;14.53;;;0.10;86.30;;;;;;5052958;28;20289;-82
2021/01/15 18:27:43;;;;;;;22.20;14.13;;;0.10;86.20;;;;;;5052442;28;20209;-81
2021/01/15 18:30:12;;;;;;;25.70;15.00;;;-0.10;88.10;;;;;;5046034;28;20725;-80
2021/01/15 18:32:47;;;;;;;21.83;14.03;;;-0.10;89.10;;;;;;5058486;28;20198;-82
2021/01/15 18:35:14;;;;;;;22.73;14.30;;;-0.10;87.90;;;;;;5058461;28;20248;-81
2021/01/15 18:37:42;;;;;;;22.77;14.57;;;-0.10;88.80;;;;;;5054468;28;20201;-84
2021/01/15 18:40:15;;;;;;;23.60;13.97;;;0.00;88.20;;;;;;5067449;28;20672;-81
2021/01/15 18:42:47;;;;;;;19.83;13.23;;;0.00;87.20;;;;;;5036372;28;20232;-83
2021/01/15 18:48:42;;;;;;;21.10;13.67;;;-0.10;87.40;;;;;;5042193;28;20162;-82
2021/01/15 18:51:10;;;;;;;24.97;15.13;;;-0.10;88.20;;;;;;5052869;28;20665;-82
2021/01/15 18:53:39;;;;;;;26.23;14.13;;;-0.10;88.00;;;;;;5060982;28;20206;-82
2021/01/15 18:56:06;;;;;;;24.60;15.40;;;-0.10;87.70;;;;;;5061242;28;20289;-83
2021/01/15 18:58:32;;;;;;;22.93;14.40;;;-0.10;89.20;;;;;;5061167;28;20278;-83
2021/01/15 19:00:58;;;;;;;26.20;15.00;;;-0.10;88.70;;;;;;5112176;22;20775;-82
2021/01/15 19:03:25;;;;;;;23.70;14.23;;;-0.10;89.50;;;;;;5083679;28;20288;-81
2021/01/15 19:06:35;;;;;;;20.93;13.97;;;-0.10;88.10;;;;;;5090535;28;20266;-82
2021/01/15 19:12:40;;;;;;;22.27;14.57;;;-0.30;89.30;;;;;;5103453;28;20623;-84
2021/01/15 19:15:10;;;;;;;23.20;14.93;;;-0.40;90.20;;;;;;5101197;28;20200;-81
2021/01/15 19:18:00;;;;;;;22.63;14.90;;;-0.40;90.30;;;;;;5091351;28;20226;-81
2021/01/15 19:23:46;;;;;;;24.53;15.10;;;-0.40;90.50;;;;;;5109736;28;20213;-85
2021/01/15 19:26:32;;;;;;;22.60;14.27;;;-0.40;90.30;;;;;;5098032;28;20227;-83
2021/01/15 19:33:03;;;;;;;23.80;14.53;;;0.00;89.50;;;;;;5103173;28;20264;-81
2021/01/15 19:35:56;;;;;;;23.10;14.43;;;0.00;89.10;;;;;;5100907;28;20205;-82
2021/01/15 19:38:24;;;;;;;21.27;15.07;;;0.00;88.60;;;;;;5100766;28;20200;-84
2021/01/15 19:47:54;;;;;;;21.33;14.30;;;0.20;90.00;;;;;;5100883;28;20178;-84
2021/01/15 19:50:21;;;;;;;26.00;15.57;;;0.10;90.10;;;;;;5100642;28;20256;-83
2021/01/15 19:52:48;;;;;;;22.23;15.60;;;-0.10;90.40;;;;;;5102376;28;20302;-83
2021/01/15 19:55:28;;;;;;;24.60;16.10;;;-0.20;90.70;;;;;;5101787;28;20219;-83
2021/01/15 19:57:54;;;;;;;25.70;16.37;;;-0.20;91.00;;;;;;5104151;27;20201;-83
2021/01/15 20:04:05;;;;;;;26.30;15.80;;;-0.40;91.20;;;;;;5102892;28;20311;-84
2021/01/15 20:10:20;;;;;;;29.97;15.97;;;-0.40;91.60;;;;;;5100773;28;20189;-84
2021/01/15 20:12:47;;;;;;;24.17;16.03;;;-0.30;91.40;;;;;;5080239;28;20358;-84
2021/01/15 20:18:24;;;;;;;25.90;16.43;;;-0.40;92.10;;;;;;5076179;28;20680;-84
2021/01/15 20:21:19;;;;;;;26.47;16.33;;;-0.50;92.20;;;;;;5077816;28;20248;-83
2021/01/15 20:23:50;;;;;;;28.17;16.50;;;-0.50;92.50;;;;;;5072556;28;20285;-87
2021/01/15 20:26:18;;;;;;;27.50;15.73;;;-0.40;92.50;;;;;;5079402;28;20205;-85
2021/01/15 20:36:03;;;;;;;27.67;17.07;;;-0.50;92.10;;;;;;5079634;28;20199;-84
2021/01/15 20:38:29;;;;;;;25.67;16.57;;;-0.60;92.20;;;;;;5074708;28;20233;-84
2021/01/15 20:40:56;;;;;;;26.73;17.30;;;-0.60;92.80;;;;;;5077629;28;20206;-87
2021/01/15 20:44:02;;;;;;;26.23;17.40;;;-0.70;92.90;;;;;;5084942;28;20289;-84
2021/01/15 20:46:30;;;;;;;26.03;17.47;;;-0.70;92.80;;;;;;5079030;28;20205;-83
2021/01/15 20:48:56;;;;;;;26.13;17.40;;;-0.70;92.90;;;;;;5078430;28;20223;-83
2021/01/15 20:55:13;;;;;;;27.13;16.40;;;-0.60;93.30;;;;;;5079413;28;20193;-83
2021/01/15 20:57:51;;;;;;;28.17;17.73;;;-0.50;93.20;;;;;;5075270;28;20559;-84
2021/01/15 21:08:06;;;;;;;25.93;17.30;;;-0.50;92.80;;;;;;5472880;22;20232;-82
2021/01/15 21:20:39;;;;;;;24.53;16.03;;;-0.40;92.30;;;;;;5081319;28;20182;-83
2021/01/15 21:23:09;;;;;;;28.13;16.93;;;-0.50;92.20;;;;;;5083582;28;20276;-83
2021/01/15 21:25:36;;;;;;;26.17;16.43;;;-0.50;92.60;;;;;;5078860;28;20288;-82
2021/01/15 22:04:14;;;;;;;24.20;16.50;;;-0.30;91.70;;;;;;5342131;22;20227;-86
2021/01/15 22:06:42;;;;;;;23.30;15.47;;;-0.30;91.70;;;;;;5076997;28;20209;-82
2021/01/15 22:09:10;;;;;;;24.57;16.80;;;-0.40;91.90;;;;;;5076523;28;20197;-82
2021/01/15 23:12:47;;;;;;;32.43;21.07;;;2.70;90.20;;;;;;5377096;22;20233;-82
2021/01/15 23:15:15;;;;;;;25.90;18.63;;;2.80;87.60;;;;;;5036224;28;20229;-82
2021/01/15 23:17:41;;;;;;;24.00;15.67;;;2.80;87.60;;;;;;5038062;28;20193;-81
2021/01/15 23:21:01;;;;;;;31.27;20.20;;;3.10;84.90;;;;;;5037367;28;20230;-82